createdAt,value
2019-06-08T00:02:26.463Z,18.34
2019-06-08T00:04:56.775Z,18.16
2019-06-08T00:07:27.428Z,18.17
2019-06-08T00:09:57.808Z,18.16
2019-06-08T00:12:28.100Z,18.23
2019-06-08T00:14:58.466Z,18.43
2019-06-08T00:17:37.951Z,18.24
2019-06-08T00:20:01.222Z,18.18
2019-06-08T00:22:31.591Z,18.10
2019-06-08T00:25:02.394Z,18.07
2019-06-08T00:27:32.771Z,18.21
2019-06-08T00:30:03.621Z,18.44
2019-06-08T00:32:34.158Z,18.60
2019-06-08T00:35:04.793Z,18.58
2019-06-08T00:37:35.500Z,18.65
2019-06-08T00:40:06.412Z,18.35
2019-06-08T00:42:36.772Z,18.37
2019-06-08T00:45:07.436Z,18.19
2019-06-08T00:47:47.666Z,17.97
2019-06-08T00:50:10.991Z,17.98
2019-06-08T00:52:41.607Z,17.82
2019-06-08T00:55:11.968Z,17.80
2019-06-08T00:57:42.433Z,18.00
2019-06-08T01:00:13.417Z,18.13
2019-06-08T01:02:43.849Z,18.08
2019-06-08T01:05:14.443Z,17.85
2019-06-08T01:07:44.705Z,17.95
2019-06-08T01:10:15.819Z,17.89
2019-06-08T01:12:46.207Z,17.89
2019-06-08T01:15:23.813Z,18.11
2019-06-08T01:18:02.008Z,17.82
2019-06-08T01:20:23.525Z,18.23
2019-06-08T01:22:54.172Z,18.06
2019-06-08T01:25:25.713Z,18.28
2019-06-08T01:27:56.541Z,18.39
2019-06-08T01:30:28.495Z,18.06
2019-06-08T01:32:58.841Z,17.98
2019-06-08T01:35:30.886Z,17.83
2019-06-08T01:38:01.373Z,18.03
2019-06-08T01:40:31.682Z,18.17
2019-06-08T01:43:02.145Z,18.03
2019-06-08T01:45:33.452Z,16.61
2019-06-08T01:48:19.461Z,18.11
2019-06-08T01:50:37.894Z,18.07
2019-06-08T01:53:08.629Z,18.04
2019-06-08T01:55:38.936Z,18.02
2019-06-08T01:58:09.239Z,17.85
2019-06-08T02:00:41.601Z,17.61
2019-06-08T02:03:12.181Z,17.43
2019-06-08T02:05:42.927Z,17.80
2019-06-08T02:08:13.254Z,17.88
2019-06-08T02:10:43.560Z,17.84
2019-06-08T02:13:13.925Z,17.71
2019-06-08T02:15:44.351Z,17.86
2019-06-08T02:18:14.658Z,17.43
2019-06-08T02:20:45.452Z,17.73
2019-06-08T02:23:15.903Z,17.77
2019-06-08T02:25:46.273Z,17.53
2019-06-08T02:28:16.917Z,17.41
2019-06-08T02:30:47.544Z,17.46
2019-06-08T02:33:17.815Z,17.34
2019-06-08T02:35:48.575Z,17.29
2019-06-08T02:38:18.900Z,17.45
2019-06-08T02:40:49.315Z,17.45
2019-06-08T02:43:19.725Z,17.56
2019-06-08T02:45:50.024Z,17.55
2019-06-08T02:48:20.681Z,17.49
2019-06-08T02:50:54.474Z,17.42
2019-06-08T02:53:26.193Z,17.48
2019-06-08T02:55:57.230Z,17.48
2019-06-08T02:58:29.237Z,17.47
2019-06-08T03:00:59.913Z,17.09
2019-06-08T03:03:33.813Z,17.05
2019-06-08T03:06:05.693Z,16.91
2019-06-08T03:08:41.273Z,16.90
2019-06-08T03:11:11.006Z,16.77
2019-06-08T03:13:42.508Z,16.71
2019-06-08T03:16:13.284Z,16.54
2019-06-08T03:18:44.005Z,16.57
2019-06-08T03:21:14.462Z,15.87
2019-06-08T03:23:45.098Z,16.49
2019-06-08T03:26:15.699Z,16.71
2019-06-08T03:28:46.001Z,16.72
2019-06-08T03:31:16.332Z,16.71
2019-06-08T03:33:54.398Z,17.01
2019-06-08T03:36:19.046Z,17.01
2019-06-08T03:38:49.326Z,16.98
2019-06-08T03:41:19.689Z,16.92
2019-06-08T03:43:50.196Z,17.00
2019-06-08T03:46:20.827Z,17.16
2019-06-08T03:48:52.319Z,17.24
2019-06-08T03:51:22.716Z,17.22
2019-06-08T03:53:53.269Z,17.31
2019-06-08T03:56:23.572Z,17.42
2019-06-08T03:58:53.960Z,17.65
2019-06-08T04:01:24.571Z,17.76
2019-06-08T04:03:59.581Z,17.77
2019-06-08T04:06:27.191Z,17.96
2019-06-08T04:08:57.805Z,18.12
2019-06-08T04:11:28.133Z,18.17
2019-06-08T04:13:58.528Z,18.33
2019-06-08T04:16:28.852Z,18.39
2019-06-08T04:18:59.164Z,18.60
2019-06-08T04:21:29.582Z,18.77
2019-06-08T04:24:00.100Z,18.86
2019-06-08T04:26:30.550Z,18.90
2019-06-08T04:29:01.263Z,19.14
2019-06-08T04:31:31.983Z,19.30
2019-06-08T04:34:02.257Z,19.50
2019-06-08T04:36:33.081Z,19.62
2019-06-08T04:39:03.567Z,19.79
2019-06-08T04:41:33.880Z,19.74
2019-06-08T04:44:04.589Z,19.94
2019-06-08T04:46:34.986Z,20.05
2019-06-08T04:49:05.923Z,19.50
2019-06-08T04:51:36.482Z,20.19
2019-06-08T04:54:06.761Z,20.06
2019-06-08T04:56:38.601Z,20.36
2019-06-08T04:59:09.204Z,20.53
2019-06-08T05:01:40.876Z,20.64
2019-06-08T05:04:11.361Z,20.74
2019-06-08T05:06:42.959Z,20.75
2019-06-08T05:09:13.282Z,20.94
2019-06-08T05:11:45.199Z,21.02
2019-06-08T05:14:16.072Z,21.12
2019-06-08T05:16:47.433Z,21.39
2019-06-08T05:19:18.123Z,21.51
2019-06-08T05:21:49.861Z,21.69
2019-06-08T05:24:20.440Z,21.62
2019-06-08T05:26:51.308Z,21.57
2019-06-08T05:29:21.590Z,21.57
2019-06-08T05:31:51.956Z,21.55
2019-06-08T05:34:22.447Z,21.71
2019-06-08T05:36:52.740Z,21.69
2019-06-08T05:39:23.035Z,22.01
2019-06-08T05:41:53.693Z,21.92
2019-06-08T05:44:24.198Z,21.96
2019-06-08T05:46:54.673Z,21.91
2019-06-08T05:49:25.343Z,22.14
2019-06-08T05:51:56.150Z,22.14
2019-06-08T05:54:26.480Z,22.05
2019-06-08T05:56:57.246Z,22.24
2019-06-08T05:59:27.870Z,22.46
2019-06-08T06:01:58.179Z,22.50
2019-06-08T06:04:28.619Z,22.35
2019-06-08T06:06:59.101Z,22.60
2019-06-08T06:09:29.369Z,22.62
2019-06-08T06:11:59.692Z,22.69
2019-06-08T06:14:30.446Z,22.93
2019-06-08T06:17:00.744Z,23.07
2019-06-08T06:19:31.026Z,22.83
2019-06-08T06:22:01.532Z,23.17
2019-06-08T06:24:32.100Z,23.39
2019-06-08T06:27:02.793Z,23.68
2019-06-08T06:29:33.104Z,23.68
2019-06-08T06:32:03.428Z,23.76
2019-06-08T06:34:34.068Z,23.94
2019-06-08T06:37:04.603Z,24.03
2019-06-08T06:39:34.890Z,24.06
2019-06-08T06:42:05.623Z,24.12
2019-06-08T06:44:36.130Z,23.72
2019-06-08T06:47:06.426Z,23.94
2019-06-08T06:49:38.434Z,24.00
2019-06-08T06:52:09.225Z,24.07
2019-06-08T06:54:40.065Z,24.29
2019-06-08T06:57:10.362Z,24.62
2019-06-08T06:59:40.645Z,24.72
2019-06-08T07:02:11.417Z,25.01
2019-06-08T07:04:41.750Z,24.83
2019-06-08T07:07:12.018Z,24.90
2019-06-08T07:09:42.735Z,24.57
2019-06-08T07:12:13.284Z,24.43
2019-06-08T07:14:44.895Z,25.02
2019-06-08T07:17:15.578Z,25.30
2019-06-08T07:19:46.415Z,25.49
2019-06-08T07:22:17.720Z,25.40
2019-06-08T07:24:48.227Z,25.36
2019-06-08T07:27:18.526Z,25.83
2019-06-08T07:29:49.179Z,26.03
2019-06-08T07:32:19.633Z,25.88
2019-06-08T07:34:51.272Z,25.61
2019-06-08T07:37:21.894Z,25.95
2019-06-08T07:39:53.643Z,26.00
2019-06-08T07:42:24.208Z,25.74
2019-06-08T07:44:55.070Z,26.30
2019-06-08T07:47:26.006Z,26.10
2019-06-08T07:49:56.488Z,26.36
2019-06-08T07:52:26.906Z,26.63
2019-06-08T07:54:58.614Z,26.72
2019-06-08T07:57:28.939Z,26.80
2019-06-08T08:00:00.182Z,26.41
2019-06-08T08:02:31.030Z,26.62
2019-06-08T08:05:01.543Z,26.64
2019-06-08T08:07:31.911Z,26.92
2019-06-08T08:10:02.793Z,27.07
2019-06-08T08:12:33.509Z,27.21
2019-06-08T08:15:04.174Z,27.23
2019-06-08T08:17:35.983Z,27.23
2019-06-08T08:20:07.009Z,27.19
2019-06-08T08:22:38.176Z,27.26
2019-06-08T08:25:08.939Z,27.07
2019-06-08T08:27:39.602Z,27.19
2019-06-08T08:30:10.318Z,27.55
2019-06-08T08:32:40.930Z,27.48
2019-06-08T08:35:11.469Z,27.37
2019-06-08T08:37:42.059Z,27.64
2019-06-08T08:40:13.696Z,27.21
2019-06-08T08:42:43.999Z,27.33
2019-06-08T08:45:18.126Z,27.27
2019-06-08T08:47:48.568Z,27.55
2019-06-08T08:50:20.185Z,27.58
2019-06-08T08:52:51.282Z,27.61
2019-06-08T08:55:23.171Z,27.45
2019-06-08T08:57:54.784Z,27.68
2019-06-08T09:00:25.105Z,27.71
2019-06-08T09:03:19.036Z,27.85
2019-06-08T09:05:28.128Z,27.61
2019-06-08T09:08:02.074Z,28.01
2019-06-08T09:10:31.009Z,28.01
2019-06-08T09:13:04.211Z,27.76
2019-06-08T09:15:33.698Z,28.43
2019-06-08T09:18:04.215Z,27.85
2019-06-08T09:20:37.899Z,27.70
2019-06-08T09:23:14.965Z,27.84
2019-06-08T09:25:40.550Z,27.99
2019-06-08T09:28:12.241Z,28.04
2019-06-08T09:30:42.887Z,27.90
2019-06-08T09:33:13.417Z,28.10
2019-06-08T09:35:43.965Z,28.84
2019-06-08T09:38:14.268Z,28.48
2019-06-08T09:40:44.640Z,28.38
2019-06-08T09:43:15.404Z,28.27
2019-06-08T09:45:48.135Z,28.72
2019-06-08T09:48:18.376Z,28.56
2019-06-08T09:50:49.150Z,28.69
2019-06-08T09:53:28.422Z,29.14
2019-06-08T09:55:53.307Z,28.89
2019-06-08T09:58:24.360Z,29.18
2019-06-08T10:00:57.203Z,28.52
2019-06-08T10:03:30.751Z,29.48
2019-06-08T10:06:05.500Z,29.07
2019-06-08T10:08:32.411Z,29.15
2019-06-08T10:11:05.649Z,29.21
2019-06-08T10:13:34.745Z,29.08
2019-06-08T10:16:09.305Z,29.97
2019-06-08T10:18:38.631Z,30.13
2019-06-08T10:21:09.587Z,29.69
2019-06-08T10:23:41.535Z,29.59
2019-06-08T10:26:12.684Z,29.75
2019-06-08T10:28:42.952Z,29.53
2019-06-08T10:31:13.567Z,29.21
2019-06-08T10:33:48.019Z,29.71
2019-06-08T10:36:18.268Z,29.41
2019-06-08T10:38:48.926Z,30.05
2019-06-08T10:41:21.804Z,30.32
2019-06-08T10:43:51.708Z,29.96
2019-06-08T10:46:22.297Z,29.72
2019-06-08T10:48:52.619Z,29.70
2019-06-08T10:51:23.296Z,30.30
2019-06-08T10:53:54.054Z,30.06
2019-06-08T10:56:24.283Z,30.46
2019-06-08T10:58:55.191Z,30.80
2019-06-08T11:01:28.120Z,30.95
2019-06-08T11:03:58.423Z,31.51
2019-06-08T11:06:29.628Z,31.59
2019-06-08T11:09:03.730Z,30.27
2019-06-08T11:11:33.504Z,30.85
2019-06-08T11:14:06.222Z,31.59
2019-06-08T11:16:38.562Z,31.54
2019-06-08T11:19:12.896Z,31.40
2019-06-08T11:21:41.336Z,31.49
2019-06-08T11:24:21.626Z,31.49
2019-06-08T11:26:47.708Z,31.55
2019-06-08T11:29:18.783Z,31.64
2019-06-08T11:31:50.936Z,31.05
2019-06-08T11:34:21.896Z,31.05
2019-06-08T11:36:52.605Z,31.71
2019-06-08T11:39:22.949Z,31.57
2019-06-08T11:41:53.465Z,30.46
2019-06-08T11:44:23.920Z,31.42
2019-06-08T11:46:54.530Z,30.67
2019-06-08T11:49:27.720Z,31.43
2019-06-08T11:51:58.357Z,31.15
2019-06-08T11:54:36.859Z,31.44
2019-06-08T11:57:01.155Z,31.01
2019-06-08T11:59:32.692Z,31.73
2019-06-08T12:02:03.546Z,30.72
2019-06-08T12:04:34.263Z,31.71
2019-06-08T12:07:04.750Z,31.89
2019-06-08T12:09:35.046Z,31.53
2019-06-08T12:12:09.003Z,31.33
2019-06-08T12:14:40.535Z,32.21
2019-06-08T12:17:15.386Z,31.73
2019-06-08T12:19:42.622Z,31.60
2019-06-08T12:22:14.221Z,32.34
2019-06-08T12:24:45.150Z,32.65
2019-06-08T12:27:29.584Z,32.77
2019-06-08T12:29:50.231Z,32.45
2019-06-08T12:32:19.726Z,32.55
2019-06-08T12:34:50.211Z,32.02
2019-06-08T12:37:22.365Z,32.89
2019-06-08T12:39:52.981Z,33.02
2019-06-08T12:42:25.047Z,33.56
2019-06-08T12:44:55.605Z,33.22
2019-06-08T12:47:29.258Z,33.35
2019-06-08T12:49:58.572Z,32.82
2019-06-08T12:52:29.855Z,32.48
2019-06-08T12:55:06.778Z,32.47
2019-06-08T12:57:32.637Z,32.79
2019-06-08T13:00:03.158Z,33.09
2019-06-08T13:02:33.760Z,32.47
2019-06-08T13:05:04.639Z,33.45
2019-06-08T13:07:35.088Z,33.42
2019-06-08T13:10:06.372Z,33.69
2019-06-08T13:12:40.642Z,33.75
2019-06-08T13:15:10.085Z,33.88
2019-06-08T13:17:41.127Z,33.57
2019-06-08T13:20:20.518Z,32.48
2019-06-08T13:22:49.608Z,32.76
2019-06-08T13:25:36.332Z,33.70
2019-06-08T13:27:52.048Z,33.89
2019-06-08T13:30:26.036Z,33.35
2019-06-08T13:32:54.651Z,33.39
2019-06-08T13:35:27.385Z,33.88
2019-06-08T13:37:57.704Z,33.24
2019-06-08T13:40:28.096Z,32.64
2019-06-08T13:42:58.413Z,33.58
2019-06-08T13:45:29.142Z,33.92
2019-06-08T13:47:59.697Z,32.73
2019-06-08T13:50:29.989Z,32.81
2019-06-08T13:53:01.790Z,32.95
2019-06-08T13:55:48.105Z,32.97
2019-06-08T13:58:05.227Z,32.95
2019-06-08T14:00:38.555Z,31.87
2019-06-08T14:03:09.143Z,32.43
2019-06-08T14:05:39.713Z,32.25
2019-06-08T14:08:10.988Z,32.02
2019-06-08T14:10:42.014Z,32.26
2019-06-08T14:13:12.788Z,32.20
2019-06-08T14:15:43.984Z,31.49
2019-06-08T14:18:17.912Z,32.80
2019-06-08T14:20:48.377Z,33.02
2019-06-08T14:23:21.083Z,32.79
2019-06-08T14:25:56.742Z,32.11
2019-06-08T14:28:24.450Z,32.15
2019-06-08T14:30:55.180Z,32.50
2019-06-08T14:33:29.153Z,32.82
2019-06-08T14:35:59.188Z,33.09
2019-06-08T14:38:38.316Z,33.10
2019-06-08T14:41:02.094Z,32.50
2019-06-08T14:43:32.395Z,32.44
2019-06-08T14:46:02.982Z,32.09
2019-06-08T14:48:34.015Z,32.35
2019-06-08T14:51:04.444Z,32.25
2019-06-08T14:53:35.089Z,31.92
2019-06-08T14:56:08.757Z,31.60
2019-06-08T14:58:38.566Z,32.19
2019-06-08T15:01:09.209Z,32.02
2019-06-08T15:03:39.528Z,32.36
2019-06-08T15:06:10.430Z,32.24
2019-06-08T15:08:40.819Z,32.46
2019-06-08T15:11:11.131Z,32.72
2019-06-08T15:13:42.082Z,31.92
2019-06-08T15:16:12.607Z,31.98
2019-06-08T15:18:42.885Z,31.42
2019-06-08T15:21:13.547Z,32.11
2019-06-08T15:23:44.105Z,32.15
2019-06-08T15:26:24.014Z,32.81
2019-06-08T15:28:48.513Z,31.88
2019-06-08T15:31:19.447Z,33.08
2019-06-08T15:33:49.960Z,32.22
2019-06-08T15:36:22.091Z,33.89
2019-06-08T15:38:52.618Z,33.39
2019-06-08T15:41:24.551Z,32.54
2019-06-08T15:43:57.508Z,33.24
2019-06-08T15:46:28.309Z,32.88
2019-06-08T15:48:58.842Z,33.01
2019-06-08T15:51:33.890Z,33.19
2019-06-08T15:54:01.549Z,33.32
2019-06-08T15:56:43.168Z,33.93
2019-06-08T15:59:03.992Z,33.37
2019-06-08T16:01:34.291Z,33.50
2019-06-08T16:04:04.957Z,32.57
2019-06-08T16:06:35.276Z,32.07
2019-06-08T16:09:08.226Z,32.71
2019-06-08T16:11:38.901Z,32.14
2019-06-08T16:14:09.186Z,31.76
2019-06-08T16:16:39.473Z,32.50
2019-06-08T16:19:10.227Z,32.35
2019-06-08T16:21:40.538Z,32.23
2019-06-08T16:24:10.812Z,31.63
2019-06-08T16:26:52.671Z,31.70
2019-06-08T16:29:13.844Z,32.03
2019-06-08T16:31:44.263Z,32.03
2019-06-08T16:34:14.843Z,31.93
2019-06-08T16:36:45.289Z,32.36
2019-06-08T16:39:16.035Z,31.14
2019-06-08T16:41:46.446Z,32.23
2019-06-08T16:44:16.735Z,31.99
2019-06-08T16:46:47.668Z,31.82
2019-06-08T16:49:18.228Z,31.15
2019-06-08T16:51:48.850Z,31.25
2019-06-08T16:54:19.697Z,31.15
2019-06-08T16:56:50.053Z,31.12
2019-06-08T16:59:20.461Z,30.86
2019-06-08T17:01:51.158Z,31.04
2019-06-08T17:04:22.804Z,30.83
2019-06-08T17:06:53.141Z,31.55
2019-06-08T17:09:23.631Z,31.52
2019-06-08T17:11:54.621Z,31.20
2019-06-08T17:14:25.524Z,31.19
2019-06-08T17:16:56.167Z,31.22
2019-06-08T17:19:26.453Z,31.01
2019-06-08T17:21:57.147Z,31.14
2019-06-08T17:24:27.522Z,30.77
2019-06-08T17:26:57.829Z,30.48
2019-06-08T17:29:28.188Z,30.57
2019-06-08T17:31:58.857Z,29.95
2019-06-08T17:34:29.177Z,30.00
2019-06-08T17:37:00.562Z,29.33
2019-06-08T17:39:31.745Z,29.00
2019-06-08T17:42:02.693Z,28.54
2019-06-08T17:44:34.860Z,28.49
2019-06-08T17:47:05.575Z,28.33
2019-06-08T17:49:36.771Z,28.12
2019-06-08T17:52:07.591Z,27.61
2019-06-08T17:54:38.984Z,27.32
2019-06-08T17:57:09.354Z,27.12
2019-06-08T17:59:41.672Z,27.08
2019-06-08T18:02:15.502Z,26.86
2019-06-08T18:04:44.482Z,26.56
2019-06-08T18:07:17.143Z,26.40
2019-06-08T18:09:48.482Z,26.57
2019-06-08T18:12:19.141Z,26.37
2019-06-08T18:14:49.431Z,26.14
2019-06-08T18:17:19.757Z,26.11
2019-06-08T18:19:50.412Z,26.04
2019-06-08T18:22:20.751Z,25.93
2019-06-08T18:24:51.057Z,25.84
2019-06-08T18:27:21.750Z,25.82
2019-06-08T18:29:52.213Z,25.74
2019-06-08T18:32:22.516Z,25.64
2019-06-08T18:34:53.007Z,25.55
2019-06-08T18:37:23.860Z,25.61
2019-06-08T18:42:23.157Z,25.42
2019-06-08T18:44:53.886Z,25.46
2019-06-08T18:47:24.479Z,25.44
2019-06-08T18:49:57.300Z,25.38
2019-06-08T18:52:28.222Z,25.37
2019-06-08T18:54:58.555Z,25.33
2019-06-08T18:57:28.974Z,25.34
2019-06-08T18:59:59.746Z,25.30
2019-06-08T19:02:30.416Z,25.27
2019-06-08T19:05:00.687Z,25.22
2019-06-08T19:07:32.540Z,25.20
2019-06-08T19:10:07.542Z,25.08
2019-06-08T19:12:39.969Z,25.15
2019-06-08T19:15:11.444Z,25.02
2019-06-08T19:17:47.244Z,25.08
2019-06-08T19:20:17.307Z,25.03
2019-06-08T19:22:53.918Z,25.01
2019-06-08T19:25:19.637Z,24.92
2019-06-08T19:27:53.198Z,24.83
2019-06-08T19:30:24.882Z,24.67
2019-06-08T19:32:54.582Z,24.76
2019-06-08T19:35:27.358Z,24.72
2019-06-08T19:37:58.347Z,24.72
2019-06-08T19:40:28.892Z,24.77
2019-06-08T19:43:01.520Z,24.81
2019-06-08T19:45:32.475Z,24.73
2019-06-08T19:48:02.746Z,24.74
2019-06-08T19:50:33.391Z,24.52
2019-06-08T19:53:03.671Z,24.49
2019-06-08T19:55:34.467Z,24.48
2019-06-08T19:58:05.075Z,24.32
2019-06-08T20:00:35.347Z,24.36
2019-06-08T20:03:07.643Z,24.42
2019-06-08T20:05:38.541Z,24.33
2019-06-08T20:08:11.932Z,24.28
2019-06-08T20:10:43.033Z,24.32
2019-06-08T20:13:14.772Z,24.28
2019-06-08T20:15:52.341Z,24.20
2019-06-08T20:18:17.385Z,24.24
2019-06-08T20:20:50.547Z,24.08
2019-06-08T20:23:20.853Z,24.09
2019-06-08T20:25:52.045Z,23.96
2019-06-08T20:28:22.281Z,23.86
2019-06-08T20:30:52.732Z,23.78
2019-06-08T20:33:23.430Z,23.73
2019-06-08T20:35:53.939Z,23.68
2019-06-08T20:38:35.109Z,23.57
2019-06-08T20:40:57.994Z,23.60
2019-06-08T20:43:28.443Z,23.50
2019-06-08T20:45:58.802Z,23.52
2019-06-08T20:48:29.451Z,23.37
2019-06-08T20:50:59.833Z,23.46
2019-06-08T20:53:30.202Z,23.39
2019-06-08T20:56:00.501Z,23.37
2019-06-08T20:58:30.815Z,23.48
2019-06-08T21:01:01.559Z,23.40
2019-06-08T21:03:31.871Z,23.37
2019-06-08T21:06:02.216Z,23.34
2019-06-08T21:08:33.025Z,23.38
2019-06-08T21:11:03.558Z,23.27
2019-06-08T21:13:33.866Z,23.27
2019-06-08T21:16:04.616Z,23.32
2019-06-08T21:18:35.016Z,23.37
2019-06-08T21:21:05.313Z,23.19
2019-06-08T21:23:35.735Z,23.16
2019-06-08T21:26:07.970Z,23.11
2019-06-08T21:28:38.646Z,23.04
2019-06-08T21:31:09.295Z,22.93
2019-06-08T21:33:39.583Z,22.92
2019-06-08T21:36:10.269Z,22.90
2019-06-08T21:38:40.944Z,22.90
2019-06-08T21:42:04.985Z,22.75
2019-06-08T21:44:37.203Z,22.76
2019-06-08T21:47:08.045Z,22.69
2019-06-08T21:49:38.558Z,22.60
2019-06-08T21:52:08.975Z,22.65
2019-06-08T21:54:39.712Z,22.64
2019-06-08T21:57:10.020Z,22.50
2019-06-08T21:59:41.275Z,22.69
2019-06-08T22:02:11.990Z,22.52
2019-06-08T22:04:42.577Z,22.59
2019-06-08T22:07:13.341Z,22.67
2019-06-08T22:12:50.774Z,22.61
2019-06-08T22:15:22.603Z,22.49
2019-06-08T22:17:53.153Z,22.52
2019-06-08T22:20:23.491Z,22.44
2019-06-08T22:22:55.121Z,22.50
2019-06-08T22:25:27.718Z,22.62
2019-06-08T22:27:58.378Z,22.63
2019-06-08T22:30:39.306Z,22.61
2019-06-08T22:33:01.755Z,22.43
2019-06-08T22:35:32.582Z,22.37
2019-06-08T22:38:03.336Z,22.39
2019-06-08T22:40:33.684Z,22.35
2019-06-08T22:43:04.417Z,22.34
2019-06-08T22:45:37.303Z,22.35
2019-06-08T22:48:08.253Z,22.39
2019-06-08T22:50:39.720Z,22.34
2019-06-08T22:53:10.312Z,22.18
2019-06-08T22:55:40.616Z,22.27
2019-06-08T22:58:11.116Z,22.14
2019-06-08T23:00:52.329Z,22.14
2019-06-08T23:03:13.637Z,22.18
2019-06-08T23:05:44.060Z,22.10
2019-06-08T23:08:17.385Z,22.07
2019-06-08T23:10:48.290Z,21.98
2019-06-08T23:13:18.772Z,22.02
2019-06-08T23:15:49.360Z,22.03
2019-06-08T23:18:19.715Z,22.03
2019-06-08T23:20:49.980Z,22.09
2019-06-08T23:23:20.583Z,22.07
2019-06-08T23:25:51.071Z,22.08
2019-06-08T23:28:21.462Z,21.98
2019-06-08T23:31:04.948Z,22.00
2019-06-08T23:33:24.529Z,21.98
2019-06-08T23:36:32.301Z,22.02
2019-06-08T23:38:27.916Z,22.04
2019-06-08T23:41:00.810Z,22.10
2019-06-08T23:43:31.605Z,21.87
2019-06-08T23:46:02.419Z,21.87
2019-06-08T23:48:33.888Z,21.84
2019-06-08T23:51:04.626Z,21.79
2019-06-08T23:53:35.269Z,21.83
2019-06-08T23:56:08.443Z,21.70
2019-06-08T23:58:37.772Z,21.73
